Time;durP1;ratioP1;P1;durP2;ratioP2;P2;SDS_P1;SDS_P2;PMS_P1;PMS_P2;Temp;Humidity;BMP_temperature;BMP_pressure;BME280_temperature;BME280_humidity;BME280_pressure;Samples;Min_cycle;Max_cycle;Signal;HPM_P1;HPM_P2
2022/06/25 00:01:08;;;;;;;8.77;2.05;;;17.40;99.90;;;;;;5113308;28;20031;-67
2022/06/25 00:03:34;;;;;;;4.25;1.70;;;17.40;99.90;;;;;;5113447;28;20078;-67
2022/06/25 00:05:59;;;;;;;4.70;1.80;;;17.40;99.90;;;;;;5112796;28;20027;-67
2022/06/25 00:08:25;;;;;;;7.30;1.75;;;17.30;99.90;;;;;;5113078;28;20078;-67
2022/06/25 00:10:52;;;;;;;3.63;1.70;;;17.30;99.90;;;;;;5116929;28;20028;-67
2022/06/25 00:13:18;;;;;;;5.22;2.03;;;17.30;99.90;;;;;;5116936;28;20460;-67
2022/06/25 00:15:43;;;;;;;2.88;1.70;;;17.30;99.90;;;;;;5116558;28;20073;-67
2022/06/25 00:18:09;;;;;;;2.63;1.73;;;17.30;99.90;;;;;;5116759;28;20024;-66
2022/06/25 00:20:35;;;;;;;4.28;1.90;;;17.40;99.90;;;;;;5116534;28;20023;-66
2022/06/25 00:23:01;;;;;;;4.65;1.90;;;17.40;99.90;;;;;;5116744;28;20057;-66
2022/06/25 00:25:27;;;;;;;6.70;1.73;;;17.30;99.90;;;;;;5115050;28;20024;-66
2022/06/25 00:27:52;;;;;;;4.10;2.22;;;17.30;99.90;;;;;;5116500;28;20028;-66
2022/06/25 00:30:18;;;;;;;3.40;1.90;;;17.30;99.90;;;;;;5116360;28;20072;-66
2022/06/25 00:32:44;;;;;;;2.42;1.50;;;17.30;99.90;;;;;;5114894;28;20039;-65
2022/06/25 00:35:10;;;;;;;2.72;1.73;;;17.30;99.90;;;;;;5116513;28;20081;-66
2022/06/25 00:37:36;;;;;;;2.45;1.60;;;17.20;99.90;;;;;;5114915;28;20464;-65
2022/06/25 00:40:02;;;;;;;5.75;2.42;;;17.20;99.90;;;;;;5116218;28;20068;-65
2022/06/25 00:42:28;;;;;;;2.05;1.58;;;17.20;99.90;;;;;;5116184;28;20074;-66
2022/06/25 00:44:55;;;;;;;4.00;2.00;;;17.20;99.90;;;;;;5114624;28;20059;-67
2022/06/25 00:47:21;;;;;;;4.38;2.20;;;17.20;99.90;;;;;;5114874;28;20028;-66
2022/06/25 00:49:47;;;;;;;5.38;1.85;;;17.10;99.90;;;;;;5116269;28;20055;-66
2022/06/25 00:52:14;;;;;;;6.30;2.00;;;17.10;99.90;;;;;;5116056;28;20034;-66
2022/06/25 00:54:46;;;;;;;2.53;1.88;;;17.10;99.90;;;;;;5115801;28;20138;-66
2022/06/25 00:57:16;;;;;;;1.75;1.55;;;17.10;99.90;;;;;;5115940;28;20459;-67
2022/06/25 00:59:47;;;;;;;4.72;1.83;;;17.10;99.90;;;;;;5114802;28;20023;-66
2022/06/25 01:02:13;;;;;;;4.72;1.83;;;17.10;99.90;;;;;;5114826;28;20510;-66
2022/06/25 01:04:39;;;;;;;4.20;1.90;;;17.10;99.90;;;;;;5116826;28;20024;-66
2022/06/25 01:07:06;;;;;;;3.13;1.77;;;17.10;99.90;;;;;;5115856;28;20043;-66
2022/06/25 01:09:32;;;;;;;2.83;1.70;;;17.10;99.90;;;;;;5115848;28;20110;-67
2022/06/25 01:11:57;;;;;;;2.00;1.73;;;17.00;99.90;;;;;;5116568;28;20461;-67
2022/06/25 01:14:23;;;;;;;2.22;1.63;;;17.10;99.90;;;;;;5116772;28;20028;-67
2022/06/25 01:16:51;;;;;;;3.42;1.70;;;17.10;99.90;;;;;;5115866;28;20099;-67
2022/06/25 01:19:17;;;;;;;5.25;1.50;;;17.10;99.90;;;;;;5115481;28;20031;-65
2022/06/25 01:21:44;;;;;;;3.95;1.60;;;17.10;99.90;;;;;;5115587;28;20019;-66
2022/06/25 01:24:10;;;;;;;3.85;1.60;;;17.10;99.90;;;;;;5115653;28;20453;-65
2022/06/25 01:26:37;;;;;;;8.38;1.50;;;17.00;99.90;;;;;;5114289;28;20122;-66
2022/06/25 01:29:03;;;;;;;4.63;1.80;;;17.00;99.90;;;;;;5119558;28;20024;-66
2022/06/25 01:31:29;;;;;;;;;;;17.00;99.90;;;;;;5115796;28;20034;-66
2022/06/25 01:33:55;;;;;;;4.25;1.80;;;17.10;99.90;;;;;;5115385;28;19912;-66
2022/06/25 01:36:21;;;;;;;4.18;2.08;;;17.10;99.90;;;;;;5115917;28;20024;-66
2022/06/25 01:38:46;;;;;;;2.70;1.90;;;17.10;99.90;;;;;;5115535;28;20024;-65
2022/06/25 01:41:12;;;;;;;2.63;1.60;;;17.00;99.90;;;;;;5115693;28;20020;-65
2022/06/25 01:43:39;;;;;;;2.38;1.55;;;17.00;99.90;;;;;;5115546;28;20050;-66
2022/06/25 01:46:05;;;;;;;4.57;1.80;;;17.00;99.90;;;;;;5116165;28;20375;-64
2022/06/25 01:48:31;;;;;;;4.22;2.08;;;17.00;99.90;;;;;;5115063;28;20028;-64
2022/06/25 01:50:56;;;;;;;1.70;1.60;;;17.00;99.90;;;;;;5115018;28;20027;-65
2022/06/25 01:53:22;;;;;;;4.33;1.67;;;17.00;99.90;;;;;;5115868;28;20437;-62
2022/06/25 01:55:48;;;;;;;8.10;2.08;;;17.00;99.90;;;;;;5114656;28;20470;-63
2022/06/25 01:58:13;;;;;;;4.47;1.67;;;17.00;99.90;;;;;;5117321;28;20020;-63
2022/06/25 02:00:39;;;;;;;3.67;1.70;;;17.00;99.90;;;;;;5118353;28;20380;-63
2022/06/25 02:03:05;;;;;;;4.28;1.83;;;17.00;99.90;;;;;;5114728;28;20235;-62
2022/06/25 02:08:17;;;;;;;2.80;1.80;;;17.00;99.90;;;;;;5114405;28;20031;-62
2022/06/25 02:10:45;;;;;;;3.70;1.83;;;17.00;99.90;;;;;;5114374;28;20028;-63
2022/06/25 02:13:11;;;;;;;5.95;1.83;;;17.00;99.90;;;;;;5114257;28;20440;-63
2022/06/25 02:15:36;;;;;;;2.22;1.80;;;17.00;99.90;;;;;;5114245;28;20038;-63
2022/06/25 02:18:02;;;;;;;4.93;2.22;;;16.90;99.90;;;;;;5114174;28;20023;-62
2022/06/25 02:20:28;;;;;;;3.88;2.70;;;16.90;99.90;;;;;;5114020;28;20024;-63
2022/06/25 02:22:53;;;;;;;6.20;1.63;;;16.90;99.90;;;;;;5114074;28;20028;-62
2022/06/25 02:25:19;;;;;;;5.03;1.52;;;16.90;99.90;;;;;;5114518;28;20031;-63
2022/06/25 02:27:44;;;;;;;2.22;1.90;;;16.90;99.90;;;;;;5113021;28;20073;-63
2022/06/25 02:30:10;;;;;;;3.30;2.42;;;16.90;99.90;;;;;;5114522;28;20031;-64
2022/06/25 02:32:36;;;;;;;2.03;1.70;;;17.00;99.90;;;;;;5112999;28;20028;-64
2022/06/25 02:35:03;;;;;;;3.60;1.90;;;16.90;99.90;;;;;;5114090;28;20066;-64
2022/06/25 02:37:28;;;;;;;5.25;1.88;;;17.00;99.90;;;;;;5113842;28;20480;-64
2022/06/25 02:39:54;;;;;;;2.55;1.50;;;17.00;99.90;;;;;;5113951;28;20020;-64
2022/06/25 02:42:19;;;;;;;2.77;1.80;;;17.00;99.90;;;;;;5114096;28;20379;-63
2022/06/25 02:44:45;;;;;;;7.90;2.35;;;16.90;99.90;;;;;;5113895;28;20264;-64
2022/06/25 02:47:10;;;;;;;4.10;1.77;;;16.90;99.90;;;;;;5114366;28;20043;-63
2022/06/25 02:49:36;;;;;;;4.30;1.80;;;16.80;99.90;;;;;;5114098;28;20028;-63
2022/06/25 02:52:02;;;;;;;2.13;1.90;;;16.80;99.90;;;;;;5113621;28;20031;-64
2022/06/25 02:54:27;;;;;;;3.50;1.70;;;16.80;99.90;;;;;;5113976;28;20099;-63
2022/06/25 02:59:41;;;;;;;4.28;1.80;;;16.80;99.90;;;;;;5113559;28;20112;-62
2022/06/25 03:02:06;;;;;;;3.60;1.60;;;16.90;99.90;;;;;;5113573;28;20077;-63
2022/06/25 03:04:32;;;;;;;3.83;1.67;;;16.90;99.90;;;;;;5113426;28;20554;-64
2022/06/25 03:06:58;;;;;;;2.05;1.60;;;16.80;99.90;;;;;;5113560;28;20027;-63
2022/06/25 03:09:24;;;;;;;5.93;1.90;;;16.90;99.90;;;;;;5113539;28;20027;-64
2022/06/25 03:11:50;;;;;;;2.72;1.70;;;16.80;99.90;;;;;;5113595;28;20020;-64
2022/06/25 03:14:16;;;;;;;4.18;2.30;;;16.80;99.90;;;;;;5113326;28;20027;-63
2022/06/25 03:16:42;;;;;;;2.30;1.63;;;16.80;99.90;;;;;;5114060;28;20030;-64
2022/06/25 03:19:08;;;;;;;3.40;1.50;;;16.70;99.90;;;;;;5114420;28;20024;-64
2022/06/25 03:21:33;;;;;;;;;;;16.70;99.90;;;;;;5113518;28;20024;-64
2022/06/25 03:23:59;;;;;;;2.92;1.63;;;16.70;99.90;;;;;;5113707;28;20352;-64
2022/06/25 03:26:25;;;;;;;4.50;1.73;;;16.80;99.90;;;;;;5113763;28;20444;-65
2022/06/25 03:28:51;;;;;;;5.22;1.77;;;16.80;99.90;;;;;;5113698;28;20042;-64
2022/06/25 03:31:16;;;;;;;2.55;2.03;;;16.80;99.90;;;;;;5113517;28;20019;-63
2022/06/25 03:33:42;;;;;;;3.40;1.85;;;16.80;99.90;;;;;;5114546;28;20043;-64
2022/06/25 03:36:07;;;;;;;3.47;1.92;;;16.80;99.90;;;;;;5113268;28;20023;-65
2022/06/25 03:38:33;;;;;;;6.57;1.80;;;16.70;99.90;;;;;;5111869;28;20111;-64
2022/06/25 03:43:43;;;;;;;3.00;1.77;;;16.70;99.90;;;;;;5113870;28;20498;-63
2022/06/25 03:46:09;;;;;;;2.45;1.98;;;16.70;99.90;;;;;;5115698;28;20126;-64
2022/06/25 03:48:34;;;;;;;3.00;2.33;;;16.80;99.90;;;;;;5117781;28;20028;-64
2022/06/25 03:51:00;;;;;;;2.88;1.75;;;16.80;99.90;;;;;;5117955;28;20019;-64
2022/06/25 03:53:26;;;;;;;3.80;1.70;;;16.80;99.90;;;;;;5116467;28;20019;-63
2022/06/25 03:55:51;;;;;;;4.25;1.88;;;16.80;99.90;;;;;;5117000;28;20032;-64
2022/06/25 03:58:17;;;;;;;2.90;1.90;;;16.90;99.90;;;;;;5117608;28;20135;-64
2022/06/25 04:00:42;;;;;;;3.40;1.97;;;16.90;99.90;;;;;;5117127;28;20038;-64
2022/06/25 04:03:08;;;;;;;4.50;1.95;;;16.90;99.90;;;;;;5116995;28;20270;-62
2022/06/25 04:05:34;;;;;;;6.70;2.00;;;16.90;99.90;;;;;;5116871;28;20036;-63
2022/06/25 04:07:59;;;;;;;7.07;2.13;;;16.90;99.90;;;;;;5117038;28;20353;-64
2022/06/25 04:10:25;;;;;;;1.80;1.70;;;16.90;99.90;;;;;;5116775;28;20034;-65
2022/06/25 04:12:50;;;;;;;3.17;1.73;;;16.90;99.90;;;;;;5117188;28;20285;-63
2022/06/25 04:15:16;;;;;;;3.03;1.80;;;17.00;99.90;;;;;;5117144;28;20030;-63
2022/06/25 04:17:42;;;;;;;1.98;1.50;;;17.00;99.90;;;;;;5116932;28;20383;-64
2022/06/25 04:20:08;;;;;;;4.13;1.73;;;17.00;99.90;;;;;;5117154;28;20027;-64
2022/06/25 04:22:34;;;;;;;4.97;1.90;;;17.00;99.90;;;;;;5115228;28;20027;-65
2022/06/25 04:24:59;;;;;;;1.73;1.55;;;17.00;99.90;;;;;;5117982;28;20032;-61
2022/06/25 04:30:09;;;;;;;5.82;2.15;;;17.00;99.90;;;;;;5116585;28;20043;-61
2022/06/25 04:32:35;;;;;;;3.30;1.67;;;17.00;99.90;;;;;;5116472;28;20103;-61
2022/06/25 04:35:00;;;;;;;3.10;1.73;;;17.20;99.90;;;;;;5116476;28;20421;-63
2022/06/25 04:37:26;;;;;;;4.27;1.50;;;17.20;99.90;;;;;;5116406;28;20023;-63
2022/06/25 04:39:51;;;;;;;3.75;1.58;;;17.30;99.90;;;;;;5117031;28;20752;-60
2022/06/25 04:42:17;;;;;;;4.18;1.38;;;17.30;99.90;;;;;;5116472;28;20023;-62
2022/06/25 04:44:42;;;;;;;4.13;1.70;;;17.30;99.90;;;;;;5116515;28;20031;-63
2022/06/25 04:47:09;;;;;;;8.80;1.52;;;17.30;99.90;;;;;;5116459;28;20487;-62
2022/06/25 04:49:35;;;;;;;4.45;1.50;;;17.20;99.90;;;;;;5116690;28;20023;-62
2022/06/25 04:52:00;;;;;;;2.90;1.60;;;17.30;99.90;;;;;;5116216;28;20027;-62
2022/06/25 04:54:26;;;;;;;4.75;1.50;;;17.30;99.90;;;;;;5116514;28;20051;-62
2022/06/25 04:56:51;;;;;;;6.55;2.00;;;17.20;99.90;;;;;;5114967;28;20559;-61
2022/06/25 04:59:18;;;;;;;3.72;1.60;;;17.30;99.90;;;;;;5116134;28;20020;-62
2022/06/25 05:01:44;;;;;;;4.18;1.65;;;17.30;99.90;;;;;;5115974;28;20103;-61
2022/06/25 05:04:10;;;;;;;6.65;1.83;;;17.30;99.90;;;;;;5116128;28;20055;-63
2022/06/25 05:06:36;;;;;;;5.38;1.73;;;17.30;99.90;;;;;;5115963;28;20035;-61
2022/06/25 05:09:01;;;;;;;4.88;1.88;;;17.20;99.90;;;;;;5116224;28;20062;-62
2022/06/25 05:11:27;;;;;;;6.53;1.90;;;17.40;99.90;;;;;;5115980;28;20048;-63
2022/06/25 05:13:52;;;;;;;3.80;1.48;;;17.60;99.90;;;;;;5115684;28;20028;-63
2022/06/25 05:16:18;;;;;;;2.10;1.63;;;17.40;99.90;;;;;;5115682;28;20032;-63
2022/06/25 05:18:44;;;;;;;5.03;1.80;;;17.60;99.90;;;;;;5115964;28;20289;-61
2022/06/25 05:21:10;;;;;;;2.80;1.60;;;17.70;99.90;;;;;;5115589;28;20254;-61
2022/06/25 05:23:36;;;;;;;2.65;1.83;;;17.60;99.90;;;;;;5115487;28;20156;-63
2022/06/25 05:26:02;;;;;;;1.92;1.70;;;17.60;99.90;;;;;;5115656;28;20405;-59
2022/06/25 05:28:28;;;;;;;2.05;1.48;;;17.70;99.90;;;;;;5116139;28;20030;-62
2022/06/25 05:30:53;;;;;;;3.33;1.55;;;17.80;99.90;;;;;;5116289;28;20106;-60
2022/06/25 05:33:19;;;;;;;2.70;1.50;;;17.80;99.90;;;;;;5115235;28;20503;-61
2022/06/25 05:35:44;;;;;;;2.75;1.50;;;18.00;99.90;;;;;;5115444;28;20480;-61
2022/06/25 05:38:10;;;;;;;2.78;1.50;;;17.90;99.90;;;;;;5115282;28;20070;-61
2022/06/25 05:40:36;;;;;;;3.35;1.60;;;17.90;99.90;;;;;;5115217;28;20023;-60
2022/06/25 05:43:03;;;;;;;3.08;1.50;;;17.90;99.90;;;;;;5115253;28;20469;-60
2022/06/25 05:45:29;;;;;;;3.95;1.63;;;17.80;99.90;;;;;;5114662;28;20163;-61
2022/06/25 05:47:55;;;;;;;5.55;1.27;;;17.80;99.90;;;;;;5115004;28;20019;-62
2022/06/25 05:50:20;;;;;;;2.50;1.50;;;17.90;99.90;;;;;;5115346;28;20114;-60
2022/06/25 05:52:46;;;;;;;1.73;1.10;;;17.90;99.90;;;;;;5114778;28;20031;-60
2022/06/25 05:55:12;;;;;;;1.70;1.33;;;17.90;99.90;;;;;;5115245;28;20020;-61
2022/06/25 05:57:38;;;;;;;1.63;1.20;;;17.90;99.90;;;;;;5115115;28;20015;-61
2022/06/25 06:00:05;;;;;;;2.45;1.20;;;18.00;99.90;;;;;;5114786;28;20185;-61
2022/06/25 06:02:31;;;;;;;3.95;1.85;;;18.10;99.90;;;;;;5114563;28;20035;-62
2022/06/25 06:04:56;;;;;;;2.85;1.40;;;18.20;99.90;;;;;;5114466;28;20400;-61
2022/06/25 06:07:22;;;;;;;1.75;1.20;;;18.20;99.90;;;;;;5114801;28;20472;-61
2022/06/25 06:09:48;;;;;;;2.30;1.30;;;18.30;99.90;;;;;;5114810;28;20073;-62
2022/06/25 06:12:14;;;;;;;2.25;1.20;;;18.60;99.90;;;;;;5114170;28;20039;-59
2022/06/25 06:14:39;;;;;;;1.80;1.33;;;18.70;99.90;;;;;;5114590;28;20052;-57
2022/06/25 06:17:05;;;;;;;2.72;1.20;;;18.70;99.90;;;;;;5113110;28;20024;-60
2022/06/25 06:19:30;;;;;;;2.58;1.23;;;18.70;99.90;;;;;;5114114;28;20024;-61
2022/06/25 06:21:56;;;;;;;4.15;1.20;;;18.60;99.90;;;;;;5114262;28;20046;-60
2022/06/25 06:24:21;;;;;;;2.53;1.10;;;18.70;99.90;;;;;;5114108;28;20024;-59
2022/06/25 06:26:47;;;;;;;1.95;1.30;;;18.70;99.90;;;;;;5114361;28;20066;-59
2022/06/25 06:29:13;;;;;;;3.70;1.20;;;18.70;99.90;;;;;;5114674;28;20102;-59
2022/06/25 06:31:38;;;;;;;2.42;1.20;;;19.00;99.90;;;;;;5115299;28;20480;-59
2022/06/25 06:34:04;;;;;;;3.45;1.50;;;19.00;99.90;;;;;;5114180;28;20019;-58
2022/06/25 06:36:29;;;;;;;1.73;1.13;;;19.10;99.90;;;;;;5113769;28;20112;-61
2022/06/25 06:38:56;;;;;;;4.63;1.00;;;19.30;99.90;;;;;;5114014;28;20365;-59
2022/06/25 06:41:21;;;;;;;2.92;1.30;;;19.30;99.90;;;;;;5114267;28;20019;-61
2022/06/25 06:43:47;;;;;;;4.90;1.13;;;19.40;99.90;;;;;;5114611;28;20510;-63
2022/06/25 06:46:13;;;;;;;1.05;0.95;;;19.50;99.90;;;;;;5112722;28;20031;-62
2022/06/25 06:48:39;;;;;;;4.72;1.20;;;19.60;99.90;;;;;;5114733;28;20469;-62
2022/06/25 06:51:06;;;;;;;2.15;0.93;;;19.70;99.90;;;;;;5113856;28;20043;-65
2022/06/25 06:53:32;;;;;;;;;;;19.80;99.90;;;;;;5113110;28;20027;-65
2022/06/25 06:55:57;;;;;;;8.02;1.42;;;19.90;99.90;;;;;;5113729;28;19995;-65
2022/06/25 06:58:23;;;;;;;3.10;0.95;;;20.00;99.90;;;;;;5114212;28;20135;-65
2022/06/25 07:00:48;;;;;;;1.55;1.10;;;20.10;99.90;;;;;;5112083;28;20089;-65
2022/06/25 07:03:14;;;;;;;2.88;1.10;;;20.30;99.90;;;;;;5113535;28;20023;-65
2022/06/25 07:05:39;;;;;;;1.10;0.90;;;20.40;99.90;;;;;;5112121;28;20400;-65
2022/06/25 07:08:05;;;;;;;4.85;1.38;;;20.40;99.90;;;;;;5113981;28;20389;-65
2022/06/25 07:10:31;;;;;;;5.13;1.10;;;20.40;99.90;;;;;;5113481;28;20396;-65
2022/06/25 07:12:56;;;;;;;1.58;0.77;;;20.50;99.90;;;;;;5113328;28;20391;-65
2022/06/25 07:15:22;;;;;;;5.20;0.98;;;20.50;99.90;;;;;;5113652;28;20024;-65
2022/06/25 07:17:47;;;;;;;1.95;1.60;;;20.70;99.90;;;;;;5113555;28;20028;-65
2022/06/25 07:20:13;;;;;;;3.00;1.08;;;20.70;99.90;;;;;;5111662;28;20051;-66
2022/06/25 07:22:39;;;;;;;4.80;1.50;;;20.80;99.90;;;;;;5113596;28;20107;-66
2022/06/25 07:25:05;;;;;;;2.28;1.10;;;20.90;99.90;;;;;;5114315;28;20031;-67
2022/06/25 07:27:31;;;;;;;1.83;1.00;;;21.00;99.90;;;;;;5114385;28;20443;-66
2022/06/25 07:29:56;;;;;;;2.40;0.95;;;21.20;99.90;;;;;;5113754;28;20028;-67
2022/06/25 07:32:22;;;;;;;3.72;1.00;;;21.30;99.90;;;;;;5113835;28;20030;-67
2022/06/25 07:34:48;;;;;;;3.08;1.20;;;21.20;99.90;;;;;;5113442;28;20027;-67
2022/06/25 07:37:13;;;;;;;1.60;1.25;;;21.20;99.90;;;;;;5112029;28;20476;-68
2022/06/25 07:39:39;;;;;;;1.85;0.90;;;21.30;99.90;;;;;;5113554;28;20027;-67
2022/06/25 07:42:05;;;;;;;1.63;0.95;;;21.40;99.90;;;;;;5112032;28;20115;-67
2022/06/25 07:44:31;;;;;;;4.50;1.15;;;21.30;99.90;;;;;;5111927;28;20373;-68
2022/06/25 07:46:56;;;;;;;2.95;1.00;;;21.70;99.90;;;;;;5113254;28;20066;-68
2022/06/25 07:49:22;;;;;;;1.15;0.90;;;23.00;99.90;;;;;;5113665;28;20063;-69
2022/06/25 07:51:56;;;;;;;;;;;25.00;99.90;;;;;;5114303;28;20032;-67
2022/06/25 07:54:27;;;;;;;0.98;0.88;;;26.30;99.90;;;;;;5116425;22;19969;-61
2022/06/25 07:56:53;;;;;;;2.72;1.10;;;27.60;99.30;;;;;;5093067;28;20012;-60
2022/06/25 07:59:19;;;;;;;2.28;0.90;;;28.30;97.20;;;;;;5093496;28;20532;-63
2022/06/25 08:01:44;;;;;;;0.70;0.60;;;27.90;96.80;;;;;;5093416;28;20514;-61
2022/06/25 08:04:10;;;;;;;2.55;0.80;;;27.00;97.10;;;;;;5093108;28;20028;-62
2022/06/25 08:06:38;;;;;;;2.33;0.90;;;26.90;97.80;;;;;;5093831;28;20028;-61
2022/06/25 08:09:04;;;;;;;2.50;1.02;;;27.60;97.40;;;;;;5094766;28;20055;-61
2022/06/25 08:11:30;;;;;;;1.58;0.80;;;29.40;95.20;;;;;;5075702;28;20085;-57
2022/06/25 08:13:56;;;;;;;4.18;0.90;;;30.30;92.70;;;;;;5093737;28;20031;-61
2022/06/25 08:16:24;;;;;;;1.13;0.80;;;31.20;91.40;;;;;;5075251;28;20111;-62
2022/06/25 08:18:49;;;;;;;1.42;1.05;;;32.40;89.80;;;;;;5092929;28;20024;-61
2022/06/25 08:21:15;;;;;;;2.67;0.70;;;33.80;84.40;;;;;;5074711;28;20024;-59
2022/06/25 08:23:40;;;;;;;1.80;0.82;;;33.60;81.60;;;;;;5093197;28;20055;-60
2022/06/25 08:26:06;;;;;;;1.52;0.77;;;34.00;79.50;;;;;;5093182;28;20023;-61
2022/06/25 08:28:31;;;;;;;2.05;0.90;;;34.60;78.60;;;;;;5092803;28;20029;-61
2022/06/25 08:30:57;;;;;;;1.75;1.08;;;35.40;75.80;;;;;;5093695;28;20023;-62
2022/06/25 08:33:23;;;;;;;1.20;0.88;;;36.10;73.00;;;;;;5096080;28;20082;-62
2022/06/25 08:35:48;;;;;;;1.83;1.08;;;36.50;71.90;;;;;;5077893;28;20160;-61
2022/06/25 08:38:16;;;;;;;1.92;1.00;;;37.50;69.00;;;;;;5096358;28;20105;-61
2022/06/25 08:40:42;;;;;;;1.90;0.80;;;38.00;67.40;;;;;;5095887;28;20040;-60
2022/06/25 08:43:07;;;;;;;2.13;0.98;;;38.60;64.90;;;;;;5095936;28;20046;-62
2022/06/25 08:45:33;;;;;;;2.05;0.80;;;39.00;62.90;;;;;;5096073;28;20073;-60
2022/06/25 08:48:00;;;;;;;1.58;0.98;;;37.70;61.70;;;;;;5096945;28;20516;-63
2022/06/25 08:50:26;;;;;;;1.17;1.08;;;37.50;62.30;;;;;;5078532;28;20111;-60
2022/06/25 08:52:55;;;;;;;1.95;1.25;;;37.10;62.20;;;;;;5096636;28;20062;-63
2022/06/25 08:55:33;;;;;;;2.08;1.35;;;36.60;63.40;;;;;;5096295;28;20472;-62
2022/06/25 08:58:00;;;;;;;1.33;1.00;;;37.60;62.50;;;;;;5096006;28;20033;-58
2022/06/25 09:00:28;;;;;;;3.78;0.90;;;37.00;59.80;;;;;;5096237;28;20020;-57
2022/06/25 09:02:55;;;;;;;1.27;0.80;;;35.80;62.30;;;;;;5096128;28;20089;-61
2022/06/25 09:05:41;;;;;;;1.52;1.00;;;35.40;62.70;;;;;;5096076;28;20545;-56
2022/06/25 09:08:09;;;;;;;2.13;0.80;;;35.60;61.90;;;;;;5095973;28;20116;-56
2022/06/25 09:10:36;;;;;;;1.15;0.70;;;34.70;63.60;;;;;;5077665;28;20476;-59
2022/06/25 09:13:05;;;;;;;4.93;0.95;;;34.30;64.20;;;;;;5077591;28;20024;-57
2022/06/25 09:15:33;;;;;;;1.45;0.90;;;32.00;67.30;;;;;;5095497;28;20020;-59
2022/06/25 09:18:06;;;;;;;1.25;0.80;;;30.80;69.60;;;;;;5095391;28;20024;-60
2022/06/25 09:20:32;;;;;;;3.63;1.17;;;30.70;70.50;;;;;;5095458;28;20064;-60
2022/06/25 09:23:03;;;;;;;2.10;1.20;;;31.20;70.20;;;;;;5095338;28;20396;-59
2022/06/25 09:25:31;;;;;;;1.10;0.70;;;33.30;66.90;;;;;;5095071;28;20108;-56
2022/06/25 09:27:57;;;;;;;3.70;0.90;;;35.40;64.10;;;;;;5095590;28;20546;-59
2022/06/25 09:30:32;;;;;;;1.65;0.80;;;37.20;61.40;;;;;;5095047;28;20028;-60
2022/06/25 09:33:00;;;;;;;2.65;1.15;;;38.00;60.00;;;;;;5095138;28;20381;-57
2022/06/25 09:35:41;;;;;;;4.43;1.60;;;38.70;59.60;;;;;;5094691;28;20059;-58
2022/06/25 09:38:14;;;;;;;1.25;0.80;;;39.10;59.00;;;;;;5094838;28;20027;-59
2022/06/25 09:40:47;;;;;;;1.33;1.20;;;38.80;58.50;;;;;;5094861;28;20221;-59
2022/06/25 09:43:17;;;;;;;1.77;0.93;;;38.50;58.10;;;;;;5094446;28;20107;-57
2022/06/25 09:45:45;;;;;;;2.15;1.10;;;37.90;57.60;;;;;;5095059;28;20093;-58
2022/06/25 09:48:20;;;;;;;2.10;0.90;;;37.40;59.00;;;;;;5094488;28;20054;-58
2022/06/25 09:51:05;;;;;;;1.05;0.90;;;36.10;59.70;;;;;;5094934;28;20024;-62
2022/06/25 09:53:31;;;;;;;2.83;1.30;;;36.20;60.10;;;;;;5094751;28;20036;-59
2022/06/25 09:55:57;;;;;;;1.75;1.05;;;35.50;60.60;;;;;;5094703;28;20024;-64
2022/06/25 09:58:24;;;;;;;1.95;0.80;;;33.60;62.40;;;;;;5094588;28;20031;-61
2022/06/25 10:00:49;;;;;;;1.58;1.13;;;31.80;65.30;;;;;;5094654;28;20016;-59
2022/06/25 10:03:15;;;;;;;1.90;0.90;;;31.10;67.90;;;;;;5094617;28;20047;-59
2022/06/25 10:05:42;;;;;;;1.65;0.98;;;32.30;66.90;;;;;;5094385;28;20389;-59
2022/06/25 10:08:11;;;;;;;1.20;1.00;;;33.90;64.20;;;;;;5094353;28;20024;-58
2022/06/25 10:10:42;;;;;;;2.40;0.82;;;35.20;62.30;;;;;;5094364;28;20486;-59
2022/06/25 10:13:08;;;;;;;1.27;0.75;;;36.80;60.40;;;;;;5094457;28;20079;-58
2022/06/25 10:15:35;;;;;;;1.67;0.98;;;38.40;58.40;;;;;;5076003;28;20487;-59
2022/06/25 10:18:04;;;;;;;1.08;1.00;;;39.30;56.20;;;;;;5094325;28;20073;-57
2022/06/25 10:20:31;;;;;;;2.22;1.10;;;38.40;56.50;;;;;;5076123;28;20516;-56
2022/06/25 10:22:59;;;;;;;1.83;1.20;;;38.30;57.60;;;;;;5094291;28;20024;-60
2022/06/25 10:25:27;;;;;;;2.58;1.10;;;36.10;58.70;;;;;;5094228;28;20061;-55
2022/06/25 10:28:06;;;;;;;1.45;0.90;;;34.60;61.00;;;;;;5094503;28;20028;-57
2022/06/25 10:30:46;;;;;;;1.65;1.02;;;33.80;62.70;;;;;;5094175;28;20078;-58
2022/06/25 10:33:17;;;;;;;1.58;1.40;;;34.20;62.60;;;;;;5094049;28;20027;-58
2022/06/25 10:35:44;;;;;;;1.30;0.90;;;34.20;62.90;;;;;;5094116;28;20020;-58
2022/06/25 10:38:14;;;;;;;3.25;0.80;;;34.90;60.80;;;;;;5094075;28;20119;-59
2022/06/25 10:40:48;;;;;;;1.38;0.90;;;34.60;60.70;;;;;;5094051;28;20027;-58
2022/06/25 10:43:34;;;;;;;1.27;1.00;;;34.30;62.20;;;;;;5094121;28;20032;-59
2022/06/25 10:45:59;;;;;;;2.47;1.20;;;35.80;61.80;;;;;;5076676;28;20020;-59
2022/06/25 10:48:26;;;;;;;2.05;1.15;;;36.60;60.60;;;;;;5094270;28;20039;-59
2022/06/25 10:50:53;;;;;;;1.00;0.90;;;36.70;59.10;;;;;;5094195;28;20495;-57
2022/06/25 10:53:21;;;;;;;1.52;0.95;;;37.40;59.50;;;;;;5094301;28;20040;-58
2022/06/25 10:55:47;;;;;;;2.17;1.45;;;35.80;60.40;;;;;;5095720;28;20449;-57
2022/06/25 10:58:24;;;;;;;1.40;1.00;;;33.70;63.50;;;;;;5077570;28;20027;-60
2022/06/25 11:00:58;;;;;;;2.28;0.98;;;32.10;65.70;;;;;;5094810;28;20020;-58
2022/06/25 11:03:27;;;;;;;1.75;0.90;;;30.90;67.40;;;;;;5093995;28;20035;-59
2022/06/25 11:05:53;;;;;;;1.30;1.00;;;30.00;69.20;;;;;;5075441;28;20519;-58
2022/06/25 11:08:19;;;;;;;1.58;0.90;;;30.30;70.10;;;;;;5093766;28;20024;-58
2022/06/25 11:10:44;;;;;;;2.65;1.00;;;31.80;67.20;;;;;;5093903;28;20480;-58
2022/06/25 11:13:10;;;;;;;2.50;1.40;;;32.30;66.40;;;;;;5094025;28;20024;-59
2022/06/25 11:15:45;;;;;;;1.92;1.10;;;31.30;67.00;;;;;;5094188;28;20020;-59
2022/06/25 11:18:12;;;;;;;2.80;1.02;;;29.70;70.10;;;;;;5093977;28;20031;-61
2022/06/25 11:20:39;;;;;;;1.95;1.20;;;29.10;71.80;;;;;;5093788;28;20023;-59
2022/06/25 11:23:09;;;;;;;2.15;1.00;;;28.70;72.60;;;;;;5094449;28;20027;-59
2022/06/25 11:28:47;;;;;;;2.45;1.58;;;28.30;73.70;;;;;;5093620;28;20035;-58
2022/06/25 11:31:17;;;;;;;2.67;1.25;;;27.90;74.60;;;;;;5093984;28;20051;-58
2022/06/25 11:33:43;;;;;;;2.85;1.20;;;27.20;76.80;;;;;;5093295;28;20036;-57
2022/06/25 11:36:10;;;;;;;2.58;1.23;;;27.10;77.00;;;;;;5093209;28;20021;-57
2022/06/25 11:38:38;;;;;;;1.90;1.10;;;27.50;77.10;;;;;;5075594;28;20150;-57
2022/06/25 11:41:04;;;;;;;1.58;1.40;;;27.40;76.80;;;;;;5093901;28;20070;-56
2022/06/25 11:43:30;;;;;;;1.65;0.98;;;27.60;77.30;;;;;;5075083;28;20035;-61
2022/06/25 11:45:57;;;;;;;2.00;1.10;;;27.70;75.00;;;;;;5075101;28;20039;-60
2022/06/25 11:48:28;;;;;;;5.22;1.20;;;27.70;76.40;;;;;;5093204;28;20031;-61
2022/06/25 11:51:01;;;;;;;3.00;1.48;;;27.50;77.20;;;;;;5093495;28;20062;-60
2022/06/25 11:53:26;;;;;;;1.55;1.00;;;27.10;78.50;;;;;;5093040;28;20024;-57
2022/06/25 11:56:03;;;;;;;2.65;1.33;;;27.10;79.70;;;;;;5092959;28;20024;-58
2022/06/25 11:58:34;;;;;;;2.25;1.25;;;27.10;79.20;;;;;;5093363;28;20457;-58
2022/06/25 12:01:02;;;;;;;1.58;1.20;;;27.20;78.30;;;;;;5093881;28;20024;-59
2022/06/25 12:03:30;;;;;;;1.45;1.23;;;27.20;78.60;;;;;;5093463;28;20085;-57
2022/06/25 12:05:57;;;;;;;2.88;1.40;;;27.50;79.20;;;;;;5095943;28;20537;-55
2022/06/25 12:08:23;;;;;;;1.88;1.10;;;27.80;76.70;;;;;;5097264;28;20066;-55
2022/06/25 12:10:51;;;;;;;2.60;1.20;;;27.60;76.80;;;;;;5096829;28;20032;-58
2022/06/25 12:13:18;;;;;;;1.88;1.40;;;27.50;76.60;;;;;;5096402;28;20075;-57
2022/06/25 12:15:44;;;;;;;1.90;1.20;;;27.50;77.50;;;;;;5096439;28;20031;-55
2022/06/25 12:18:09;;;;;;;1.27;1.17;;;27.30;76.60;;;;;;5096663;28;20020;-57
2022/06/25 12:20:51;;;;;;;2.78;1.27;;;27.20;77.10;;;;;;5097126;28;20027;-56
2022/06/25 12:23:17;;;;;;;2.60;1.20;;;27.10;76.10;;;;;;5096423;28;20024;-57
2022/06/25 12:25:43;;;;;;;1.67;1.20;;;27.20;76.50;;;;;;5078052;28;20047;-61
2022/06/25 12:28:08;;;;;;;5.32;1.27;;;27.30;76.60;;;;;;5078256;28;20111;-59
2022/06/25 12:30:34;;;;;;;2.38;1.42;;;27.10;76.60;;;;;;5096492;28;20105;-61
2022/06/25 12:33:14;;;;;;;5.45;1.30;;;27.20;78.40;;;;;;5096410;28;20028;-59
2022/06/25 12:35:44;;;;;;;2.50;1.33;;;27.40;77.10;;;;;;5096963;28;20491;-59
2022/06/25 12:38:12;;;;;;;3.47;1.58;;;27.40;77.70;;;;;;5096781;28;20500;-59
2022/06/25 12:40:44;;;;;;;4.05;1.83;;;27.50;76.80;;;;;;5097551;28;20403;-58
2022/06/25 12:43:11;;;;;;;4.22;1.30;;;27.50;76.30;;;;;;5096648;28;20028;-59
2022/06/25 12:45:39;;;;;;;2.60;0.98;;;27.50;76.10;;;;;;5078432;28;20402;-60
2022/06/25 12:48:06;;;;;;;1.73;1.20;;;27.10;76.00;;;;;;5078388;28;20450;-60
2022/06/25 12:50:34;;;;;;;3.58;1.30;;;26.90;76.80;;;;;;5096778;28;20491;-60
2022/06/25 12:53:07;;;;;;;1.83;1.38;;;26.80;76.60;;;;;;5096382;28;20028;-59
2022/06/25 12:55:33;;;;;;;1.70;1.10;;;26.70;77.10;;;;;;5096690;28;20099;-61
2022/06/25 12:58:10;;;;;;;1.60;1.20;;;26.60;76.90;;;;;;5096042;28;20107;-62
2022/06/25 13:00:37;;;;;;;1.55;1.20;;;26.60;77.50;;;;;;5096434;28;20039;-58